sensor_id;sensor_type;location;lat;lon;timestamp;P1;durP1;ratioP1;P2;durP2;ratioP2
11431;SDS011;5772;50.940;6.782;2023-04-03T00:01:33;27.60;;;26.30;;
11431;SDS011;5772;50.940;6.782;2023-04-03T00:03:58;30.17;;;28.67;;
11431;SDS011;5772;50.940;6.782;2023-04-03T00:06:24;29.47;;;28.20;;
11431;SDS011;5772;50.940;6.782;2023-04-03T00:08:49;26.50;;;25.30;;
11431;SDS011;5772;50.940;6.782;2023-04-03T00:11:14;28.33;;;27.03;;
11431;SDS011;5772;50.940;6.782;2023-04-03T00:13:40;28.80;;;27.53;;
11431;SDS011;5772;50.940;6.782;2023-04-03T00:16:07;27.63;;;26.33;;
11431;SDS011;5772;50.940;6.782;2023-04-03T00:18:33;25.60;;;24.43;;
11431;SDS011;5772;50.940;6.782;2023-04-03T00:20:59;24.17;;;22.97;;
11431;SDS011;5772;50.940;6.782;2023-04-03T00:23:24;25.93;;;24.50;;
11431;SDS011;5772;50.940;6.782;2023-04-03T00:25:50;24.80;;;23.43;;
11431;SDS011;5772;50.940;6.782;2023-04-03T00:28:17;25.77;;;24.63;;
11431;SDS011;5772;50.940;6.782;2023-04-03T00:30:42;25.03;;;23.67;;
11431;SDS011;5772;50.940;6.782;2023-04-03T00:33:09;25.77;;;24.57;;
11431;SDS011;5772;50.940;6.782;2023-04-03T00:35:36;27.90;;;26.37;;
11431;SDS011;5772;50.940;6.782;2023-04-03T00:38:02;25.73;;;24.53;;
11431;SDS011;5772;50.940;6.782;2023-04-03T00:40:27;26.30;;;24.97;;
11431;SDS011;5772;50.940;6.782;2023-04-03T00:42:55;27.00;;;25.60;;
11431;SDS011;5772;50.940;6.782;2023-04-03T00:45:26;27.33;;;26.00;;
11431;SDS011;5772;50.940;6.782;2023-04-03T00:47:53;27.47;;;25.97;;
11431;SDS011;5772;50.940;6.782;2023-04-03T00:50:20;27.43;;;26.00;;
11431;SDS011;5772;50.940;6.782;2023-04-03T00:52:46;26.50;;;25.17;;
11431;SDS011;5772;50.940;6.782;2023-04-03T00:55:12;26.83;;;25.33;;
11431;SDS011;5772;50.940;6.782;2023-04-03T00:57:37;26.20;;;24.80;;
11431;SDS011;5772;50.940;6.782;2023-04-03T01:00:04;27.57;;;26.10;;
11431;SDS011;5772;50.940;6.782;2023-04-03T01:02:31;27.97;;;26.60;;
11431;SDS011;5772;50.940;6.782;2023-04-03T01:04:57;28.63;;;26.83;;
11431;SDS011;5772;50.940;6.782;2023-04-03T01:07:24;28.67;;;27.37;;
11431;SDS011;5772;50.940;6.782;2023-04-03T01:09:53;29.93;;;28.23;;
11431;SDS011;5772;50.940;6.782;2023-04-03T01:12:21;29.93;;;28.27;;
11431;SDS011;5772;50.940;6.782;2023-04-03T01:14:48;27.60;;;26.20;;
11431;SDS011;5772;50.940;6.782;2023-04-03T01:17:24;28.83;;;27.33;;
11431;SDS011;5772;50.940;6.782;2023-04-03T01:19:56;27.37;;;25.87;;
11431;SDS011;5772;50.940;6.782;2023-04-03T01:22:29;27.33;;;25.90;;
11431;SDS011;5772;50.940;6.782;2023-04-03T01:24:57;29.87;;;28.27;;
11431;SDS011;5772;50.940;6.782;2023-04-03T01:27:22;30.57;;;28.77;;
11431;SDS011;5772;50.940;6.782;2023-04-03T01:29:48;29.77;;;28.10;;
11431;SDS011;5772;50.940;6.782;2023-04-03T01:32:15;29.13;;;27.77;;
11431;SDS011;5772;50.940;6.782;2023-04-03T01:34:40;31.33;;;29.73;;
11431;SDS011;5772;50.940;6.782;2023-04-03T01:37:05;32.80;;;31.03;;
11431;SDS011;5772;50.940;6.782;2023-04-03T01:39:31;30.83;;;29.27;;
11431;SDS011;5772;50.940;6.782;2023-04-03T01:41:56;31.87;;;30.27;;
11431;SDS011;5772;50.940;6.782;2023-04-03T01:44:21;33.47;;;31.77;;
11431;SDS011;5772;50.940;6.782;2023-04-03T01:46:47;35.23;;;33.13;;
11431;SDS011;5772;50.940;6.782;2023-04-03T01:49:13;33.03;;;31.33;;
11431;SDS011;5772;50.940;6.782;2023-04-03T01:51:39;32.37;;;30.63;;
11431;SDS011;5772;50.940;6.782;2023-04-03T01:54:04;34.63;;;32.93;;
11431;SDS011;5772;50.940;6.782;2023-04-03T01:56:29;34.03;;;32.30;;
11431;SDS011;5772;50.940;6.782;2023-04-03T01:58:55;33.50;;;31.83;;
11431;SDS011;5772;50.940;6.782;2023-04-03T02:01:20;35.23;;;33.33;;
11431;SDS011;5772;50.940;6.782;2023-04-03T02:03:46;32.20;;;30.50;;
11431;SDS011;5772;50.940;6.782;2023-04-03T02:06:12;32.97;;;31.17;;
11431;SDS011;5772;50.940;6.782;2023-04-03T02:08:38;35.27;;;33.03;;
11431;SDS011;5772;50.940;6.782;2023-04-03T02:11:03;32.70;;;31.20;;
11431;SDS011;5772;50.940;6.782;2023-04-03T02:13:29;34.90;;;32.93;;
11431;SDS011;5772;50.940;6.782;2023-04-03T02:15:54;31.77;;;30.17;;
11431;SDS011;5772;50.940;6.782;2023-04-03T02:18:19;33.13;;;31.23;;
11431;SDS011;5772;50.940;6.782;2023-04-03T02:20:46;32.83;;;31.10;;
11431;SDS011;5772;50.940;6.782;2023-04-03T02:23:13;34.10;;;32.20;;
11431;SDS011;5772;50.940;6.782;2023-04-03T02:25:38;32.20;;;30.60;;
11431;SDS011;5772;50.940;6.782;2023-04-03T02:28:04;31.23;;;29.53;;
11431;SDS011;5772;50.940;6.782;2023-04-03T02:30:29;32.23;;;30.23;;
11431;SDS011;5772;50.940;6.782;2023-04-03T02:32:54;33.50;;;31.73;;
11431;SDS011;5772;50.940;6.782;2023-04-03T02:35:20;34.43;;;32.47;;
11431;SDS011;5772;50.940;6.782;2023-04-03T02:37:45;30.40;;;28.80;;
11431;SDS011;5772;50.940;6.782;2023-04-03T02:40:12;30.93;;;29.23;;
11431;SDS011;5772;50.940;6.782;2023-04-03T02:42:37;32.80;;;30.67;;
11431;SDS011;5772;50.940;6.782;2023-04-03T02:45:03;31.47;;;29.63;;
11431;SDS011;5772;50.940;6.782;2023-04-03T02:47:29;31.83;;;30.23;;
11431;SDS011;5772;50.940;6.782;2023-04-03T02:49:54;31.27;;;29.73;;
11431;SDS011;5772;50.940;6.782;2023-04-03T02:52:20;28.90;;;27.33;;
11431;SDS011;5772;50.940;6.782;2023-04-03T02:54:45;29.80;;;28.13;;
11431;SDS011;5772;50.940;6.782;2023-04-03T02:57:12;30.63;;;28.87;;
11431;SDS011;5772;50.940;6.782;2023-04-03T02:59:38;29.20;;;27.40;;
11431;SDS011;5772;50.940;6.782;2023-04-03T03:02:03;31.07;;;29.37;;
11431;SDS011;5772;50.940;6.782;2023-04-03T03:04:29;29.47;;;27.87;;
11431;SDS011;5772;50.940;6.782;2023-04-03T03:06:54;30.37;;;28.67;;
11431;SDS011;5772;50.940;6.782;2023-04-03T03:09:19;29.03;;;27.37;;
11431;SDS011;5772;50.940;6.782;2023-04-03T03:11:45;27.90;;;26.30;;
11431;SDS011;5772;50.940;6.782;2023-04-03T03:14:12;30.83;;;29.13;;
11431;SDS011;5772;50.940;6.782;2023-04-03T03:16:37;27.00;;;25.60;;
11431;SDS011;5772;50.940;6.782;2023-04-03T03:19:02;27.83;;;26.43;;
11431;SDS011;5772;50.940;6.782;2023-04-03T03:21:28;29.37;;;27.77;;
11431;SDS011;5772;50.940;6.782;2023-04-03T03:23:53;28.57;;;27.07;;
11431;SDS011;5772;50.940;6.782;2023-04-03T03:26:18;29.67;;;28.17;;
11431;SDS011;5772;50.940;6.782;2023-04-03T03:28:44;30.97;;;29.27;;
11431;SDS011;5772;50.940;6.782;2023-04-03T03:31:10;30.83;;;29.17;;
11431;SDS011;5772;50.940;6.782;2023-04-03T03:33:36;31.17;;;29.57;;
11431;SDS011;5772;50.940;6.782;2023-04-03T03:36:01;29.37;;;27.60;;
11431;SDS011;5772;50.940;6.782;2023-04-03T03:38:27;28.20;;;26.50;;
11431;SDS011;5772;50.940;6.782;2023-04-03T03:40:52;29.03;;;27.33;;
11431;SDS011;5772;50.940;6.782;2023-04-03T03:43:18;30.20;;;28.50;;
11431;SDS011;5772;50.940;6.782;2023-04-03T03:45:43;29.93;;;28.20;;
11431;SDS011;5772;50.940;6.782;2023-04-03T03:48:10;29.17;;;27.67;;
11431;SDS011;5772;50.940;6.782;2023-04-03T03:50:35;32.53;;;30.70;;
11431;SDS011;5772;50.940;6.782;2023-04-03T03:53:01;29.57;;;27.67;;
11431;SDS011;5772;50.940;6.782;2023-04-03T03:55:26;30.47;;;28.67;;
11431;SDS011;5772;50.940;6.782;2023-04-03T03:57:52;30.10;;;28.60;;
11431;SDS011;5772;50.940;6.782;2023-04-03T04:00:17;27.87;;;26.37;;
11431;SDS011;5772;50.940;6.782;2023-04-03T04:02:43;28.37;;;26.67;;
11431;SDS011;5772;50.940;6.782;2023-04-03T04:05:10;28.23;;;26.43;;
11431;SDS011;5772;50.940;6.782;2023-04-03T04:07:35;29.57;;;27.67;;
11431;SDS011;5772;50.940;6.782;2023-04-03T04:10:01;30.00;;;28.40;;
11431;SDS011;5772;50.940;6.782;2023-04-03T04:12:26;29.10;;;27.50;;
11431;SDS011;5772;50.940;6.782;2023-04-03T04:14:52;31.47;;;29.67;;
11431;SDS011;5772;50.940;6.782;2023-04-03T04:17:17;29.03;;;27.37;;
11431;SDS011;5772;50.940;6.782;2023-04-03T04:19:42;29.93;;;28.20;;
11431;SDS011;5772;50.940;6.782;2023-04-03T04:22:09;29.83;;;28.30;;
11431;SDS011;5772;50.940;6.782;2023-04-03T04:24:34;28.80;;;27.17;;
11431;SDS011;5772;50.940;6.782;2023-04-03T04:27:00;31.57;;;29.97;;
11431;SDS011;5772;50.940;6.782;2023-04-03T04:29:25;29.07;;;27.57;;
11431;SDS011;5772;50.940;6.782;2023-04-03T04:31:51;30.03;;;28.23;;
11431;SDS011;5772;50.940;6.782;2023-04-03T04:34:16;28.63;;;27.03;;
11431;SDS011;5772;50.940;6.782;2023-04-03T04:36:41;29.57;;;27.83;;
11431;SDS011;5772;50.940;6.782;2023-04-03T04:39:08;30.43;;;28.80;;
11431;SDS011;5772;50.940;6.782;2023-04-03T04:41:34;30.60;;;28.83;;
11431;SDS011;5772;50.940;6.782;2023-04-03T04:43:59;31.40;;;29.67;;
11431;SDS011;5772;50.940;6.782;2023-04-03T04:46:25;29.87;;;28.17;;
11431;SDS011;5772;50.940;6.782;2023-04-03T04:48:50;29.97;;;28.27;;
11431;SDS011;5772;50.940;6.782;2023-04-03T04:51:15;30.87;;;29.17;;
11431;SDS011;5772;50.940;6.782;2023-04-03T04:53:41;29.00;;;27.40;;
11431;SDS011;5772;50.940;6.782;2023-04-03T04:56:08;27.57;;;26.27;;
11431;SDS011;5772;50.940;6.782;2023-04-03T04:58:33;29.50;;;27.83;;
11431;SDS011;5772;50.940;6.782;2023-04-03T05:00:59;29.37;;;27.77;;
11431;SDS011;5772;50.940;6.782;2023-04-03T05:03:25;30.03;;;28.27;;
11431;SDS011;5772;50.940;6.782;2023-04-03T05:05:50;31.10;;;29.43;;
11431;SDS011;5772;50.940;6.782;2023-04-03T05:08:15;29.80;;;28.10;;
11431;SDS011;5772;50.940;6.782;2023-04-03T05:10:41;30.80;;;29.00;;
11431;SDS011;5772;50.940;6.782;2023-04-03T05:13:07;32.57;;;30.67;;
11431;SDS011;5772;50.940;6.782;2023-04-03T05:15:33;38.27;;;35.00;;
11431;SDS011;5772;50.940;6.782;2023-04-03T05:17:58;40.80;;;37.53;;
11431;SDS011;5772;50.940;6.782;2023-04-03T05:20:23;32.57;;;30.60;;
11431;SDS011;5772;50.940;6.782;2023-04-03T05:22:49;29.50;;;28.00;;
11431;SDS011;5772;50.940;6.782;2023-04-03T05:25:14;32.30;;;30.57;;
11431;SDS011;5772;50.940;6.782;2023-04-03T05:27:40;30.03;;;28.57;;
11431;SDS011;5772;50.940;6.782;2023-04-03T05:30:07;28.77;;;27.30;;
11431;SDS011;5772;50.940;6.782;2023-04-03T05:32:33;30.50;;;28.50;;
11431;SDS011;5772;50.940;6.782;2023-04-03T05:34:58;32.27;;;30.43;;
11431;SDS011;5772;50.940;6.782;2023-04-03T05:37:24;31.47;;;29.37;;
11431;SDS011;5772;50.940;6.782;2023-04-03T05:39:49;29.73;;;28.03;;
11431;SDS011;5772;50.940;6.782;2023-04-03T05:42:15;30.37;;;28.90;;
11431;SDS011;5772;50.940;6.782;2023-04-03T05:44:40;28.70;;;26.93;;
11431;SDS011;5772;50.940;6.782;2023-04-03T05:47:07;28.77;;;27.37;;
11431;SDS011;5772;50.940;6.782;2023-04-03T05:49:32;27.50;;;25.77;;
11431;SDS011;5772;50.940;6.782;2023-04-03T05:51:57;30.10;;;28.50;;
11431;SDS011;5772;50.940;6.782;2023-04-03T05:54:23;28.70;;;27.30;;
11431;SDS011;5772;50.940;6.782;2023-04-03T05:56:50;30.33;;;28.53;;
11431;SDS011;5772;50.940;6.782;2023-04-03T05:59:15;27.53;;;26.00;;
11431;SDS011;5772;50.940;6.782;2023-04-03T06:01:41;29.17;;;27.57;;
11431;SDS011;5772;50.940;6.782;2023-04-03T06:04:07;27.60;;;26.13;;
11431;SDS011;5772;50.940;6.782;2023-04-03T06:06:42;30.13;;;28.43;;
11431;SDS011;5772;50.940;6.782;2023-04-03T06:09:11;30.23;;;28.63;;
11431;SDS011;5772;50.940;6.782;2023-04-03T06:11:37;29.70;;;28.30;;
11431;SDS011;5772;50.940;6.782;2023-04-03T06:14:02;29.87;;;27.93;;
11431;SDS011;5772;50.940;6.782;2023-04-03T06:16:27;29.67;;;28.27;;
11431;SDS011;5772;50.940;6.782;2023-04-03T06:18:53;28.47;;;27.07;;
11431;SDS011;5772;50.940;6.782;2023-04-03T06:21:20;33.07;;;31.20;;
11431;SDS011;5772;50.940;6.782;2023-04-03T06:23:45;37.57;;;35.87;;
11431;SDS011;5772;50.940;6.782;2023-04-03T06:26:11;30.80;;;28.93;;
11431;SDS011;5772;50.940;6.782;2023-04-03T06:28:36;28.27;;;26.97;;
11431;SDS011;5772;50.940;6.782;2023-04-03T06:31:01;23.93;;;22.73;;
11431;SDS011;5772;50.940;6.782;2023-04-03T06:33:27;29.97;;;28.67;;
11431;SDS011;5772;50.940;6.782;2023-04-03T06:35:55;30.53;;;29.23;;
11431;SDS011;5772;50.940;6.782;2023-04-03T06:38:22;23.50;;;22.50;;
11431;SDS011;5772;50.940;6.782;2023-04-03T06:40:48;23.53;;;22.53;;
11431;SDS011;5772;50.940;6.782;2023-04-03T06:43:14;24.10;;;22.87;;
11431;SDS011;5772;50.940;6.782;2023-04-03T06:45:39;22.30;;;21.00;;
11431;SDS011;5772;50.940;6.782;2023-04-03T06:48:05;25.37;;;24.13;;
11431;SDS011;5772;50.940;6.782;2023-04-03T06:50:30;21.93;;;21.00;;
11431;SDS011;5772;50.940;6.782;2023-04-03T06:52:56;21.00;;;19.90;;
11431;SDS011;5772;50.940;6.782;2023-04-03T06:55:22;19.50;;;18.60;;
11431;SDS011;5772;50.940;6.782;2023-04-03T06:57:48;20.10;;;19.10;;
11431;SDS011;5772;50.940;6.782;2023-04-03T07:00:14;20.50;;;19.43;;
11431;SDS011;5772;50.940;6.782;2023-04-03T07:02:40;20.87;;;19.63;;
11431;SDS011;5772;50.940;6.782;2023-04-03T07:05:05;19.13;;;18.13;;
11431;SDS011;5772;50.940;6.782;2023-04-03T07:07:31;18.07;;;17.20;;
11431;SDS011;5772;50.940;6.782;2023-04-03T07:09:57;18.30;;;17.40;;
11431;SDS011;5772;50.940;6.782;2023-04-03T07:12:23;17.83;;;16.83;;
11431;SDS011;5772;50.940;6.782;2023-04-03T07:14:49;17.10;;;16.30;;
11431;SDS011;5772;50.940;6.782;2023-04-03T07:17:14;18.70;;;17.90;;
11431;SDS011;5772;50.940;6.782;2023-04-03T07:19:39;18.63;;;17.53;;
11431;SDS011;5772;50.940;6.782;2023-04-03T07:22:05;18.00;;;17.20;;
11431;SDS011;5772;50.940;6.782;2023-04-03T07:24:30;17.47;;;16.57;;
11431;SDS011;5772;50.940;6.782;2023-04-03T07:26:55;16.70;;;15.90;;
11431;SDS011;5772;50.940;6.782;2023-04-03T07:29:22;18.30;;;17.50;;
11431;SDS011;5772;50.940;6.782;2023-04-03T07:31:48;18.93;;;18.13;;
11431;SDS011;5772;50.940;6.782;2023-04-03T07:34:13;19.23;;;18.30;;
11431;SDS011;5772;50.940;6.782;2023-04-03T07:36:38;17.70;;;16.90;;
11431;SDS011;5772;50.940;6.782;2023-04-03T07:39:04;17.87;;;17.07;;
11431;SDS011;5772;50.940;6.782;2023-04-03T07:41:29;17.50;;;16.80;;
11431;SDS011;5772;50.940;6.782;2023-04-03T07:43:54;16.90;;;16.10;;
11431;SDS011;5772;50.940;6.782;2023-04-03T07:46:21;16.27;;;15.57;;
11431;SDS011;5772;50.940;6.782;2023-04-03T07:48:47;16.80;;;15.90;;
11431;SDS011;5772;50.940;6.782;2023-04-03T07:51:12;14.83;;;14.13;;
11431;SDS011;5772;50.940;6.782;2023-04-03T07:53:37;18.30;;;17.60;;
11431;SDS011;5772;50.940;6.782;2023-04-03T07:56:03;20.15;;;19.15;;
11431;SDS011;5772;50.940;6.782;2023-04-03T07:58:28;15.73;;;14.93;;
11431;SDS011;5772;50.940;6.782;2023-04-03T08:00:54;16.90;;;16.20;;
11431;SDS011;5772;50.940;6.782;2023-04-03T08:03:21;16.75;;;15.95;;
11431;SDS011;5772;50.940;6.782;2023-04-03T08:05:47;19.17;;;17.85;;
11431;SDS011;5772;50.940;6.782;2023-04-03T08:08:14;14.38;;;13.77;;
11431;SDS011;5772;50.940;6.782;2023-04-03T08:10:41;15.18;;;14.57;;
11431;SDS011;5772;50.940;6.782;2023-04-03T08:13:07;15.05;;;14.45;;
11431;SDS011;5772;50.940;6.782;2023-04-03T08:15:32;14.95;;;14.15;;
11431;SDS011;5772;50.940;6.782;2023-04-03T08:17:58;14.43;;;13.82;;
11431;SDS011;5772;50.940;6.782;2023-04-03T08:20:25;14.73;;;14.05;;
11431;SDS011;5772;50.940;6.782;2023-04-03T08:22:50;17.25;;;16.20;;
11431;SDS011;5772;50.940;6.782;2023-04-03T08:25:16;14.13;;;13.45;;
11431;SDS011;5772;50.940;6.782;2023-04-03T08:27:41;14.60;;;13.80;;
11431;SDS011;5772;50.940;6.782;2023-04-03T08:30:07;14.32;;;13.63;;
11431;SDS011;5772;50.940;6.782;2023-04-03T08:32:33;13.82;;;13.23;;
11431;SDS011;5772;50.940;6.782;2023-04-03T08:34:58;12.80;;;12.27;;
11431;SDS011;5772;50.940;6.782;2023-04-03T08:37:25;14.05;;;13.35;;
11431;SDS011;5772;50.940;6.782;2023-04-03T08:39:51;14.43;;;13.80;;
11431;SDS011;5772;50.940;6.782;2023-04-03T08:42:19;13.80;;;13.20;;
11431;SDS011;5772;50.940;6.782;2023-04-03T08:44:51;14.50;;;13.90;;
11431;SDS011;5772;50.940;6.782;2023-04-03T08:47:22;13.63;;;13.13;;
11431;SDS011;5772;50.940;6.782;2023-04-03T08:49:50;14.10;;;13.27;;
11431;SDS011;5772;50.940;6.782;2023-04-03T08:52:18;14.52;;;13.93;;
11431;SDS011;5772;50.940;6.782;2023-04-03T08:54:49;14.02;;;13.43;;
11431;SDS011;5772;50.940;6.782;2023-04-03T08:57:16;14.32;;;13.73;;
11431;SDS011;5772;50.940;6.782;2023-04-03T08:59:42;14.35;;;13.57;;
11431;SDS011;5772;50.940;6.782;2023-04-03T09:02:15;15.80;;;15.00;;
11431;SDS011;5772;50.940;6.782;2023-04-03T09:05:05;15.45;;;14.85;;
11431;SDS011;5772;50.940;6.782;2023-04-03T09:07:37;15.82;;;15.13;;
11431;SDS011;5772;50.940;6.782;2023-04-03T09:10:08;14.20;;;13.50;;
11431;SDS011;5772;50.940;6.782;2023-04-03T09:12:37;14.43;;;13.60;;
11431;SDS011;5772;50.940;6.782;2023-04-03T09:15:06;13.88;;;13.18;;
11431;SDS011;5772;50.940;6.782;2023-04-03T09:17:39;14.35;;;13.55;;
11431;SDS011;5772;50.940;6.782;2023-04-03T09:20:09;14.02;;;13.43;;
11431;SDS011;5772;50.940;6.782;2023-04-03T09:22:41;13.75;;;13.15;;
11431;SDS011;5772;50.940;6.782;2023-04-03T09:25:10;14.05;;;13.25;;
11431;SDS011;5772;50.940;6.782;2023-04-03T09:27:37;13.40;;;12.88;;
11431;SDS011;5772;50.940;6.782;2023-04-03T09:30:04;14.40;;;13.80;;
11431;SDS011;5772;50.940;6.782;2023-04-03T09:32:31;13.50;;;13.00;;
11431;SDS011;5772;50.940;6.782;2023-04-03T09:34:59;13.57;;;12.98;;
11431;SDS011;5772;50.940;6.782;2023-04-03T09:37:34;13.30;;;12.70;;
11431;SDS011;5772;50.940;6.782;2023-04-03T09:40:01;12.85;;;12.35;;
11431;SDS011;5772;50.940;6.782;2023-04-03T09:42:29;13.40;;;12.90;;
11431;SDS011;5772;50.940;6.782;2023-04-03T09:44:55;13.88;;;13.27;;
11431;SDS011;5772;50.940;6.782;2023-04-03T09:47:23;13.80;;;13.10;;
11431;SDS011;5772;50.940;6.782;2023-04-03T09:49:50;14.52;;;13.93;;
11431;SDS011;5772;50.940;6.782;2023-04-03T09:52:19;15.10;;;14.43;;
11431;SDS011;5772;50.940;6.782;2023-04-03T09:54:44;15.27;;;14.57;;
11431;SDS011;5772;50.940;6.782;2023-04-03T09:57:10;13.80;;;13.20;;
11431;SDS011;5772;50.940;6.782;2023-04-03T09:59:40;14.30;;;13.70;;
11431;SDS011;5772;50.940;6.782;2023-04-03T10:02:20;15.05;;;14.43;;
11431;SDS011;5772;50.940;6.782;2023-04-03T10:04:48;14.68;;;13.98;;
11431;SDS011;5772;50.940;6.782;2023-04-03T10:07:26;14.75;;;13.93;;
11431;SDS011;5772;50.940;6.782;2023-04-03T10:09:55;14.82;;;14.13;;
11431;SDS011;5772;50.940;6.782;2023-04-03T10:12:21;14.95;;;14.35;;
11431;SDS011;5772;50.940;6.782;2023-04-03T10:14:55;14.68;;;14.07;;
11431;SDS011;5772;50.940;6.782;2023-04-03T10:17:22;14.52;;;13.60;;
11431;SDS011;5772;50.940;6.782;2023-04-03T10:20:01;15.60;;;14.90;;
11431;SDS011;5772;50.940;6.782;2023-04-03T10:22:29;14.07;;;13.48;;
11431;SDS011;5772;50.940;6.782;2023-04-03T10:25:00;14.30;;;13.70;;
11431;SDS011;5772;50.940;6.782;2023-04-03T10:27:40;15.18;;;14.57;;
11431;SDS011;5772;50.940;6.782;2023-04-03T10:30:17;15.63;;;15.02;;
11431;SDS011;5772;50.940;6.782;2023-04-03T10:33:01;14.55;;;13.85;;
11431;SDS011;5772;50.940;6.782;2023-04-03T10:35:39;14.35;;;13.75;;
11431;SDS011;5772;50.940;6.782;2023-04-03T10:38:12;15.75;;;15.15;;
11431;SDS011;5772;50.940;6.782;2023-04-03T10:40:44;15.73;;;15.02;;
11431;SDS011;5772;50.940;6.782;2023-04-03T10:43:14;16.23;;;15.55;;
11431;SDS011;5772;50.940;6.782;2023-04-03T10:45:48;15.80;;;15.20;;
11431;SDS011;5772;50.940;6.782;2023-04-03T10:48:17;16.30;;;15.60;;
11431;SDS011;5772;50.940;6.782;2023-04-03T10:50:51;15.48;;;14.77;;
11431;SDS011;5772;50.940;6.782;2023-04-03T10:53:24;15.30;;;14.63;;
11431;SDS011;5772;50.940;6.782;2023-04-03T10:55:55;14.52;;;13.93;;
11431;SDS011;5772;50.940;6.782;2023-04-03T10:58:26;16.17;;;15.48;;
11431;SDS011;5772;50.940;6.782;2023-04-03T11:00:56;14.20;;;13.60;;
11431;SDS011;5772;50.940;6.782;2023-04-03T11:03:27;15.68;;;14.70;;
11431;SDS011;5772;50.940;6.782;2023-04-03T11:05:55;15.15;;;14.55;;
11431;SDS011;5772;50.940;6.782;2023-04-03T11:08:24;15.80;;;15.20;;
11431;SDS011;5772;50.940;6.782;2023-04-03T11:10:51;16.63;;;15.82;;
11431;SDS011;5772;50.940;6.782;2023-04-03T11:13:19;16.35;;;15.65;;
11431;SDS011;5772;50.940;6.782;2023-04-03T11:15:48;16.25;;;15.63;;
11431;SDS011;5772;50.940;6.782;2023-04-03T11:18:15;15.13;;;14.52;;
11431;SDS011;5772;50.940;6.782;2023-04-03T11:20:44;14.18;;;13.57;;
11431;SDS011;5772;50.940;6.782;2023-04-03T11:23:13;14.10;;;13.40;;
11431;SDS011;5772;50.940;6.782;2023-04-03T11:25:43;14.13;;;13.50;;
11431;SDS011;5772;50.940;6.782;2023-04-03T11:28:11;14.40;;;13.80;;
11431;SDS011;5772;50.940;6.782;2023-04-03T11:30:39;14.27;;;13.68;;
11431;SDS011;5772;50.940;6.782;2023-04-03T11:33:16;15.18;;;14.57;;
11431;SDS011;5772;50.940;6.782;2023-04-03T11:35:47;13.88;;;13.38;;
11431;SDS011;5772;50.940;6.782;2023-04-03T11:38:17;16.75;;;16.05;;
11431;SDS011;5772;50.940;6.782;2023-04-03T11:40:45;16.27;;;15.57;;
11431;SDS011;5772;50.940;6.782;2023-04-03T11:43:17;15.60;;;15.00;;
11431;SDS011;5772;50.940;6.782;2023-04-03T11:45:50;16.47;;;15.77;;
11431;SDS011;5772;50.940;6.782;2023-04-03T12:09:31;16.42;;;15.63;;
11431;SDS011;5772;50.940;6.782;2023-04-03T12:12:23;15.73;;;15.13;;
11431;SDS011;5772;50.940;6.782;2023-04-03T12:14:53;16.27;;;15.68;;
11431;SDS011;5772;50.940;6.782;2023-04-03T12:17:20;17.33;;;16.63;;
11431;SDS011;5772;50.940;6.782;2023-04-03T12:19:48;16.58;;;15.88;;
11431;SDS011;5772;50.940;6.782;2023-04-03T12:22:14;15.85;;;15.25;;
11431;SDS011;5772;50.940;6.782;2023-04-03T12:24:42;16.48;;;15.80;;
11431;SDS011;5772;50.940;6.782;2023-04-03T12:27:13;13.93;;;13.43;;
11431;SDS011;5772;50.940;6.782;2023-04-03T12:29:53;15.52;;;14.93;;
11431;SDS011;5772;50.940;6.782;2023-04-03T12:32:26;15.57;;;14.90;;
11431;SDS011;5772;50.940;6.782;2023-04-03T12:35:05;14.68;;;14.00;;
11431;SDS011;5772;50.940;6.782;2023-04-03T12:37:57;15.05;;;14.43;;
11431;SDS011;5772;50.940;6.782;2023-04-03T12:40:37;14.75;;;14.15;;
11431;SDS011;5772;50.940;6.782;2023-04-03T12:43:10;14.80;;;14.20;;
11431;SDS011;5772;50.940;6.782;2023-04-03T12:45:44;16.23;;;15.50;;
11431;SDS011;5772;50.940;6.782;2023-04-03T12:48:14;14.75;;;14.15;;
11431;SDS011;5772;50.940;6.782;2023-04-03T12:50:40;14.60;;;14.00;;
11431;SDS011;5772;50.940;6.782;2023-04-03T12:53:10;14.85;;;14.25;;
11431;SDS011;5772;50.940;6.782;2023-04-03T12:55:39;14.82;;;14.23;;
11431;SDS011;5772;50.940;6.782;2023-04-03T12:58:14;14.40;;;13.80;;
11431;SDS011;5772;50.940;6.782;2023-04-03T13:00:40;15.45;;;14.75;;
11431;SDS011;5772;50.940;6.782;2023-04-03T13:03:06;15.32;;;14.73;;
11431;SDS011;5772;50.940;6.782;2023-04-03T13:05:46;15.10;;;14.50;;
11431;SDS011;5772;50.940;6.782;2023-04-03T13:08:12;15.48;;;14.88;;
11431;SDS011;5772;50.940;6.782;2023-04-03T13:10:44;15.40;;;14.68;;
11431;SDS011;5772;50.940;6.782;2023-04-03T13:13:16;15.10;;;14.48;;
11431;SDS011;5772;50.940;6.782;2023-04-03T13:15:42;14.63;;;13.82;;
11431;SDS011;5772;50.940;6.782;2023-04-03T13:18:20;15.73;;;15.02;;
11431;SDS011;5772;50.940;6.782;2023-04-03T13:20:47;15.05;;;14.40;;
11431;SDS011;5772;50.940;6.782;2023-04-03T13:23:13;15.77;;;15.07;;
11431;SDS011;5772;50.940;6.782;2023-04-03T13:25:42;14.38;;;13.68;;
11431;SDS011;5772;50.940;6.782;2023-04-03T13:28:11;15.98;;;14.73;;
11431;SDS011;5772;50.940;6.782;2023-04-03T13:30:39;16.45;;;15.75;;
11431;SDS011;5772;50.940;6.782;2023-04-03T13:33:06;14.73;;;14.13;;
11431;SDS011;5772;50.940;6.782;2023-04-03T13:35:44;16.00;;;15.20;;
11431;SDS011;5772;50.940;6.782;2023-04-03T13:38:22;14.48;;;13.98;;
11431;SDS011;5772;50.940;6.782;2023-04-03T13:40:49;15.00;;;14.20;;
11431;SDS011;5772;50.940;6.782;2023-04-03T13:43:19;15.90;;;15.30;;
11431;SDS011;5772;50.940;6.782;2023-04-03T13:45:53;17.60;;;16.58;;
11431;SDS011;5772;50.940;6.782;2023-04-03T13:48:20;16.98;;;16.25;;
11431;SDS011;5772;50.940;6.782;2023-04-03T13:50:53;16.75;;;15.95;;
11431;SDS011;5772;50.940;6.782;2023-04-03T13:53:21;15.97;;;15.27;;
11431;SDS011;5772;50.940;6.782;2023-04-03T13:55:58;17.48;;;16.52;;
11431;SDS011;5772;50.940;6.782;2023-04-03T13:58:27;15.50;;;14.82;;
11431;SDS011;5772;50.940;6.782;2023-04-03T14:00:54;16.92;;;16.23;;
11431;SDS011;5772;50.940;6.782;2023-04-03T14:03:20;16.08;;;15.43;;
11431;SDS011;5772;50.940;6.782;2023-04-03T14:05:47;18.25;;;17.10;;
11431;SDS011;5772;50.940;6.782;2023-04-03T14:08:13;15.87;;;15.27;;
11431;SDS011;5772;50.940;6.782;2023-04-03T14:10:39;15.90;;;15.27;;
11431;SDS011;5772;50.940;6.782;2023-04-03T14:13:04;17.70;;;16.90;;
11431;SDS011;5772;50.940;6.782;2023-04-03T14:15:31;17.03;;;16.27;;
11431;SDS011;5772;50.940;6.782;2023-04-03T14:17:57;17.20;;;16.50;;
11431;SDS011;5772;50.940;6.782;2023-04-03T14:20:24;15.80;;;15.13;;
11431;SDS011;5772;50.940;6.782;2023-04-03T14:22:50;16.00;;;15.30;;
11431;SDS011;5772;50.940;6.782;2023-04-03T14:25:16;16.10;;;15.20;;
11431;SDS011;5772;50.940;6.782;2023-04-03T14:27:42;16.33;;;15.63;;
11431;SDS011;5772;50.940;6.782;2023-04-03T14:30:14;17.60;;;16.80;;
11431;SDS011;5772;50.940;6.782;2023-04-03T14:32:42;18.00;;;17.20;;
11431;SDS011;5772;50.940;6.782;2023-04-03T14:35:08;17.93;;;16.97;;
11431;SDS011;5772;50.940;6.782;2023-04-03T14:37:33;17.60;;;16.83;;
11431;SDS011;5772;50.940;6.782;2023-04-03T14:39:59;16.47;;;15.67;;
11431;SDS011;5772;50.940;6.782;2023-04-03T14:42:27;15.47;;;14.87;;
11431;SDS011;5772;50.940;6.782;2023-04-03T14:44:53;15.47;;;14.67;;
11431;SDS011;5772;50.940;6.782;2023-04-03T14:47:19;16.10;;;15.40;;
11431;SDS011;5772;50.940;6.782;2023-04-03T14:49:48;16.07;;;15.20;;
11431;SDS011;5772;50.940;6.782;2023-04-03T14:52:16;16.93;;;16.23;;
11431;SDS011;5772;50.940;6.782;2023-04-03T14:54:43;16.73;;;16.03;;
11431;SDS011;5772;50.940;6.782;2023-04-03T14:57:09;17.70;;;16.77;;